Time;durP1;ratioP1;P1;durP2;ratioP2;P2;SDS_P1;SDS_P2;PMS_P1;PMS_P2;Temp;Humidity;BMP_temperature;BMP_pressure;BME280_temperature;BME280_humidity;BME280_pressure;Samples;Min_cycle;Max_cycle;Signal;HPM_P1;HPM_P2
2022/01/11 00:01:31;;;;;;;23.85;14.07;;;2.30;99.90;;;1.51;100.00;98386.94;5004065;28;20025;-41
2022/01/11 00:03:57;;;;;;;27.00;14.95;;;2.30;99.90;;;1.50;100.00;98379.09;5015677;28;20021;-40
2022/01/11 00:09:30;;;;;;;25.70;14.68;;;2.30;99.90;;;1.48;100.00;98378.22;5011357;28;20130;-42
2022/01/11 00:11:57;;;;;;;29.77;15.18;;;2.30;99.90;;;1.51;100.00;98380.88;5021596;28;20049;-43
2022/01/11 00:14:22;;;;;;;27.02;14.77;;;2.30;99.90;;;1.43;100.00;98372.06;5022477;28;20115;-42
2022/01/11 00:16:48;;;;;;;28.10;14.93;;;2.20;99.90;;;1.46;100.00;98369.53;5024400;28;20504;-43
2022/01/11 00:19:14;;;;;;;29.77;15.52;;;2.30;99.90;;;1.46;100.00;98372.97;5016861;28;20598;-41
2022/01/11 00:21:46;;;;;;;24.08;14.30;;;2.30;99.90;;;1.40;100.00;98377.22;5022054;28;20025;-40
2022/01/11 00:24:32;;;;;;;24.90;13.52;;;2.20;99.90;;;1.32;100.00;98380.56;5020156;28;20017;-40
2022/01/11 00:27:03;;;;;;;22.17;12.13;;;2.20;99.90;;;1.31;100.00;98377.94;5018688;28;20125;-41
2022/01/11 00:29:31;;;;;;;24.05;12.70;;;2.10;99.90;;;1.31;100.00;98375.34;5020002;28;20037;-41
2022/01/11 00:32:03;;;;;;;24.25;12.95;;;2.10;99.90;;;1.20;100.00;98380.38;5019330;28;20037;-42
2022/01/11 00:34:46;;;;;;;28.97;14.60;;;2.10;99.90;;;1.09;100.00;98376.72;5020280;28;20052;-41
2022/01/11 00:37:12;;;;;;;23.30;13.18;;;2.00;99.90;;;1.04;100.00;98384.47;5023811;28;20030;-44
2022/01/11 00:39:38;;;;;;;17.48;11.38;;;1.90;99.90;;;1.05;100.00;98377.53;5023731;28;20030;-40
2022/01/11 00:42:04;;;;;;;18.48;10.98;;;1.90;99.90;;;1.05;100.00;98387.94;5019757;28;20034;-40
2022/01/11 00:44:29;;;;;;;24.95;12.63;;;1.90;99.90;;;1.12;100.00;98387.19;5022087;28;20442;-43
2022/01/11 00:46:55;;;;;;;21.52;12.43;;;1.90;99.90;;;1.11;100.00;98386.31;5004825;28;20033;-43
2022/01/11 00:49:21;;;;;;;24.10;11.45;;;1.90;99.90;;;1.08;100.00;98380.19;5007587;28;20076;-44
2022/01/11 00:51:46;;;;;;;21.30;12.43;;;1.90;99.90;;;1.16;100.00;98388.97;5022816;28;20037;-43
2022/01/11 00:54:12;;;;;;;23.25;12.57;;;2.00;99.90;;;1.19;100.00;98382.97;5022212;28;20030;-41
2022/01/11 00:56:38;;;;;;;23.95;13.32;;;2.00;99.90;;;1.22;100.00;98386.50;5022249;28;20032;-41
2022/01/11 00:59:05;;;;;;;22.48;13.60;;;2.00;99.90;;;1.14;100.00;98370.75;5019900;28;20064;-42
2022/01/11 01:01:37;;;;;;;23.10;14.07;;;2.00;99.90;;;1.27;100.00;98394.34;5020601;28;20084;-41
2022/01/11 01:04:05;;;;;;;23.00;13.40;;;2.10;99.90;;;1.24;100.00;98387.38;5017646;28;20108;-43
2022/01/11 01:06:31;;;;;;;31.25;15.32;;;2.10;99.90;;;1.30;100.00;98390.06;5019454;28;20045;-44
2022/01/11 01:08:57;;;;;;;27.80;16.20;;;2.10;99.90;;;1.33;100.00;98392.72;5020807;28;20224;-42
2022/01/11 01:11:22;;;;;;;29.27;15.90;;;2.10;99.90;;;1.39;100.00;98397.13;5019058;28;20095;-46
2022/01/11 01:13:48;;;;;;;28.67;16.52;;;2.20;99.90;;;1.42;100.00;98397.19;5021272;28;20052;-43
2022/01/11 01:16:14;;;;;;;23.58;15.13;;;2.20;99.90;;;1.44;100.00;98395.50;5019564;28;20033;-42
2022/01/11 01:18:40;;;;;;;26.55;14.98;;;2.20;99.90;;;1.40;100.00;98398.00;5021604;28;20036;-41
2022/01/11 01:21:06;;;;;;;27.35;14.40;;;2.20;99.90;;;1.41;100.00;98399.78;5020636;28;20024;-41
2022/01/11 01:23:32;;;;;;;26.63;15.05;;;2.20;99.90;;;1.34;100.00;98398.78;5020637;28;20034;-43
2022/01/11 01:25:59;;;;;;;23.15;13.98;;;2.20;99.90;;;1.32;100.00;98395.28;5019438;28;20037;-42
2022/01/11 01:28:25;;;;;;;26.60;14.02;;;2.20;99.90;;;1.24;100.00;98389.09;5023790;28;20037;-43
2022/01/11 01:30:52;;;;;;;27.20;14.63;;;2.10;99.90;;;1.32;100.00;98403.97;5021289;28;20048;-43
2022/01/11 01:33:18;;;;;;;25.25;15.15;;;2.10;99.90;;;1.21;100.00;98402.91;5001820;28;20044;-41
2022/01/11 01:35:50;;;;;;;24.75;13.88;;;2.10;99.90;;;1.14;100.00;98406.28;5006551;28;20445;-45
2022/01/11 01:38:22;;;;;;;30.55;14.95;;;2.00;99.90;;;1.03;100.00;98400.88;5023707;28;20505;-42
2022/01/11 01:40:49;;;;;;;25.85;14.23;;;2.00;99.90;;;0.91;100.00;98404.13;5018863;28;20176;-44
2022/01/11 01:43:15;;;;;;;27.63;14.35;;;1.90;99.90;;;0.87;100.00;98411.88;5016713;28;20029;-44
2022/01/11 01:45:45;;;;;;;27.40;14.10;;;1.80;99.90;;;0.87;100.00;98414.47;5020897;28;20411;-39
2022/01/11 01:48:12;;;;;;;27.00;14.05;;;1.70;99.90;;;0.84;100.00;98414.41;5018272;28;20029;-45
2022/01/11 01:50:38;;;;;;;25.27;13.98;;;1.70;99.90;;;0.84;100.00;98417.88;5019357;28;20037;-43
2022/01/11 01:53:10;;;;;;;25.60;13.52;;;1.70;99.90;;;0.88;100.00;98419.69;5020771;28;20124;-45
2022/01/11 01:55:39;;;;;;;22.08;13.68;;;1.70;99.90;;;0.83;100.00;98410.06;5022054;28;20412;-44
2022/01/11 01:58:05;;;;;;;20.92;12.65;;;1.70;99.90;;;0.84;100.00;98410.06;5020489;28;20029;-47
2022/01/11 02:00:32;;;;;;;29.50;13.52;;;1.70;99.90;;;0.97;100.00;98425.88;5022014;28;20510;-41
2022/01/11 02:03:15;;;;;;;22.80;13.25;;;1.70;99.90;;;0.82;100.00;98390.13;5013068;28;20037;-40
2022/01/11 02:05:42;;;;;;;;;;;1.80;99.90;;;1.00;100.00;98423.34;5018883;28;20033;-45
2022/01/11 02:08:09;;;;;;;21.63;12.02;;;1.80;99.90;;;0.97;100.00;98426.78;5021426;28;19924;-43
2022/01/11 02:10:37;;;;;;;23.17;12.60;;;1.80;99.90;;;0.94;100.00;98424.97;5019938;28;20025;-44
2022/01/11 02:13:04;;;;;;;26.48;12.95;;;1.70;99.90;;;0.91;100.00;98417.13;5019626;28;20049;-44
2022/01/11 02:15:30;;;;;;;24.50;12.93;;;1.80;99.90;;;0.94;100.00;98418.91;5004762;28;20038;-44
2022/01/11 02:18:19;;;;;;;23.20;13.73;;;1.70;99.90;;;0.98;100.00;98425.03;5018617;28;20033;-42
2022/01/11 02:20:47;;;;;;;26.25;14.35;;;1.80;99.90;;;1.00;100.00;98426.81;5020704;28;20125;-42
2022/01/11 02:23:14;;;;;;;31.13;15.55;;;1.80;99.90;;;0.91;100.00;98424.91;5020486;28;20033;-40
2022/01/11 02:25:42;;;;;;;29.27;15.48;;;1.80;99.90;;;0.87;100.00;98422.25;5020543;28;20029;-40
2022/01/11 02:28:13;;;;;;;25.88;14.88;;;1.70;99.90;;;0.86;100.00;98421.41;5019561;28;20033;-43
2022/01/11 02:30:39;;;;;;;25.33;13.63;;;1.70;99.90;;;0.77;100.00;98413.41;5018153;28;20057;-44
2022/01/11 02:33:10;;;;;;;19.42;12.75;;;1.70;99.90;;;0.81;100.00;98420.44;5016358;28;20426;-41
2022/01/11 02:35:36;;;;;;;23.58;12.32;;;1.70;99.90;;;0.75;100.00;98417.69;5016785;28;20036;-47
2022/01/11 02:38:02;;;;;;;18.73;11.85;;;1.60;99.90;;;0.83;100.00;98430.84;5015283;28;20025;-42
2022/01/11 02:40:27;;;;;;;20.70;12.43;;;1.60;99.90;;;0.81;100.00;98427.31;5017639;28;20034;-45
2022/01/11 02:42:53;;;;;;;21.23;13.20;;;1.60;99.90;;;0.81;100.00;98422.13;5022756;28;20121;-43
2022/01/11 02:45:20;;;;;;;25.88;13.95;;;1.70;99.90;;;0.83;100.00;98426.53;5014638;28;20408;-41
2022/01/11 02:47:48;;;;;;;26.80;14.43;;;1.60;99.90;;;0.77;100.00;98426.38;5022109;28;20029;-43
2022/01/11 02:50:17;;;;;;;27.80;15.98;;;1.60;99.90;;;0.68;100.00;98421.94;5020039;28;20036;-45
2022/01/11 02:52:42;;;;;;;31.23;15.38;;;1.60;99.90;;;0.56;100.00;98419.97;5026379;28;20029;-43
2022/01/11 02:55:12;;;;;;;25.98;15.27;;;1.50;99.90;;;0.52;100.00;98425.94;5021537;28;20719;-43
2022/01/11 02:57:38;;;;;;;29.27;14.95;;;1.40;99.90;;;0.49;100.00;98428.47;5021051;28;20043;-46
2022/01/11 03:00:08;;;;;;;26.10;14.48;;;1.40;99.90;;;0.52;100.00;98419.88;5020709;28;20526;-45
2022/01/11 03:02:34;;;;;;;30.85;15.52;;;1.40;99.90;;;0.55;100.00;98426.00;5023519;28;20392;-43
2022/01/11 03:05:00;;;;;;;30.08;15.70;;;1.40;99.90;;;0.59;100.00;98420.88;5020890;28;20029;-45
2022/01/11 03:07:26;;;;;;;28.10;14.85;;;1.40;99.90;;;0.65;100.00;98426.19;5021342;28;20412;-41
2022/01/11 03:10:33;;;;;;;23.98;14.35;;;1.40;99.90;;;0.72;100.00;98421.13;5023522;28;20037;-43
2022/01/11 03:12:43;;;;;;;26.98;15.23;;;1.50;99.90;;;0.77;100.00;98418.59;5017528;28;20068;-38
2022/01/11 03:15:11;;;;;;;27.35;15.82;;;1.50;99.90;;;0.83;100.00;98426.53;5020878;28;20030;-44
2022/01/11 03:17:38;;;;;;;27.90;16.35;;;1.60;99.90;;;0.88;100.00;98424.88;5019773;28;20502;-40
2022/01/11 03:20:07;;;;;;;26.58;15.63;;;1.70;99.90;;;0.91;100.00;98419.72;5013897;28;20796;-38
2022/01/11 03:22:33;;;;;;;31.08;16.35;;;1.70;99.90;;;0.94;100.00;98414.59;5023993;28;20103;-39
2022/01/11 03:24:58;;;;;;;28.58;16.70;;;1.70;99.90;;;1.02;100.00;98422.50;5023559;28;20021;-41
2022/01/11 03:27:24;;;;;;;28.73;15.98;;;1.80;99.90;;;1.06;100.00;98423.44;5023501;28;20044;-40
2022/01/11 03:29:51;;;;;;;27.77;15.77;;;1.80;99.90;;;1.08;100.00;98425.22;5029403;28;20048;-40
2022/01/11 03:32:19;;;;;;;31.73;16.63;;;1.90;99.90;;;1.12;100.00;98426.16;5022268;28;20030;-42
2022/01/11 03:34:46;;;;;;;30.85;16.38;;;1.90;99.90;;;0.98;100.00;98412.06;5024627;28;20022;-40
2022/01/11 03:37:17;;;;;;;26.65;16.08;;;1.90;99.90;;;0.97;100.00;98418.09;5019866;28;20034;-41
2022/01/11 03:39:45;;;;;;;30.77;15.40;;;1.80;99.90;;;0.96;100.00;98422.41;5006807;28;20036;-41
2022/01/11 03:42:11;;;;;;;34.88;15.70;;;1.80;99.90;;;0.93;100.00;98422.34;5020226;28;20056;-42
2022/01/11 03:44:36;;;;;;;26.25;15.25;;;1.80;99.90;;;0.94;100.00;98432.78;5022465;28;20068;-43
2022/01/11 03:47:04;;;;;;;24.13;14.98;;;1.80;99.90;;;0.94;100.00;98432.78;5021446;28;20033;-45
2022/01/11 03:49:30;;;;;;;27.90;15.30;;;1.80;99.90;;;0.90;100.00;98432.72;5018782;28;22188;-43
2022/01/11 03:51:56;;;;;;;26.80;15.68;;;1.70;99.90;;;0.90;100.00;98432.72;5018323;28;20030;-44
2022/01/11 03:54:28;;;;;;;26.25;15.13;;;1.70;99.90;;;0.89;100.00;98437.00;5021247;28;20041;-42
2022/01/11 03:56:54;;;;;;;25.25;15.32;;;1.70;99.90;;;0.89;100.00;98443.94;5022674;28;20479;-46
2022/01/11 03:59:20;;;;;;;27.63;15.55;;;1.70;99.90;;;0.91;100.00;98443.09;5017091;28;20222;-43
2022/01/11 04:01:47;;;;;;;28.00;14.48;;;1.70;99.90;;;0.92;100.00;98444.88;5007101;28;20055;-43
2022/01/11 04:04:14;;;;;;;27.38;15.35;;;1.70;99.90;;;0.92;100.00;98442.28;5023510;28;20049;-45
2022/01/11 04:06:41;;;;;;;27.30;15.57;;;1.70;99.90;;;0.93;100.00;98445.72;5017998;28;20033;-45
2022/01/11 04:09:08;;;;;;;28.10;16.05;;;1.70;99.90;;;0.93;100.00;98446.63;5025006;28;20076;-43
2022/01/11 04:11:35;;;;;;;29.08;17.27;;;1.70;99.90;;;0.93;100.00;98448.31;5061092;22;20118;-89
2022/01/11 04:14:01;;;;;;;23.75;15.10;;;1.70;99.90;;;0.84;100.00;98437.78;5023902;28;20037;-89
2022/01/11 04:16:27;;;;;;;26.33;14.40;;;1.70;99.90;;;0.83;100.00;98441.25;5059903;28;20029;-89
2022/01/11 04:18:52;;;;;;;26.40;15.07;;;1.70;99.90;;;0.90;100.00;98446.56;5061201;28;20082;-88
2022/01/11 04:21:18;;;;;;;26.50;14.57;;;1.70;99.90;;;0.88;100.00;98447.38;5021932;28;20511;-89
2022/01/11 04:23:45;;;;;;;25.80;14.88;;;1.70;99.90;;;0.85;100.00;98450.78;5028303;28;20103;-89
2022/01/11 04:26:10;;;;;;;27.33;15.70;;;1.60;99.90;;;0.64;100.00;98419.22;5037543;28;20112;-90
2022/01/11 04:28:36;;;;;;;27.80;15.70;;;1.60;99.90;;;0.84;100.00;98449.03;5054634;28;20104;-90
2022/01/11 04:31:02;;;;;;;26.05;16.08;;;1.60;99.90;;;0.71;100.00;98440.13;5038475;28;20064;-90
2022/01/11 04:33:30;;;;;;;31.58;15.85;;;1.60;99.90;;;0.76;100.00;98442.84;5048241;28;20066;-89
2022/01/11 04:35:58;;;;;;;27.35;16.08;;;1.60;99.90;;;0.70;100.00;98447.91;5022078;28;20048;-89
2022/01/11 04:38:29;;;;;;;26.50;14.95;;;1.50;99.90;;;0.64;100.00;98452.97;5057362;28;20075;-90
2022/01/11 04:40:56;;;;;;;28.27;14.57;;;1.50;99.90;;;0.48;100.00;98444.03;5041913;28;20523;-89
2022/01/11 04:43:21;;;;;;;25.88;15.02;;;1.40;99.90;;;0.54;100.00;98460.59;5038578;28;20044;-89
2022/01/11 04:45:47;;;;;;;31.27;16.02;;;1.40;99.90;;;0.47;100.00;98463.06;5057099;28;20032;-89
2022/01/11 04:48:14;;;;;;;27.80;15.40;;;1.30;99.90;;;0.47;100.00;98468.25;5059211;28;20368;-90
2022/01/11 04:50:41;;;;;;;28.02;15.00;;;1.30;99.90;;;0.47;100.00;98474.31;5057361;28;20028;-88
2022/01/11 04:53:07;;;;;;;26.38;15.52;;;1.30;99.90;;;0.44;100.00;98450.88;5044926;28;20020;-89
2022/01/11 04:55:33;;;;;;;29.88;16.85;;;1.40;99.90;;;0.38;100.00;98456.81;5041068;28;20036;-89
2022/01/11 04:58:00;;;;;;;33.20;15.95;;;1.40;99.90;;;0.59;100.00;98467.59;5057051;28;20033;-88
2022/01/11 05:00:26;;;;;;;30.45;15.77;;;1.40;99.90;;;0.65;100.00;98481.59;5039880;28;20059;-89
2022/01/11 05:02:52;;;;;;;30.27;16.05;;;1.40;99.90;;;0.57;100.00;98457.19;5043357;28;20029;-89
2022/01/11 05:05:18;;;;;;;28.88;16.73;;;1.50;99.90;;;0.68;100.00;98467.78;5037629;28;20029;-91
2022/01/11 05:07:46;;;;;;;32.65;16.70;;;1.50;99.90;;;0.74;100.00;98480.88;5044026;28;20036;-89
2022/01/11 05:10:12;;;;;;;32.70;17.08;;;1.50;99.90;;;0.56;100.00;98453.72;5027764;28;20033;-90
2022/01/11 05:12:39;;;;;;;30.45;16.55;;;1.60;99.90;;;0.44;100.00;98430.09;5041920;28;20024;-89
2022/01/11 05:15:10;;;;;;;26.98;15.80;;;1.60;99.90;;;0.72;100.00;98469.59;5037652;28;20025;-88
2022/01/11 05:17:37;;;;;;;27.40;16.90;;;1.60;99.90;;;0.82;100.00;98476.69;5033892;28;20044;-90
2022/01/11 05:20:05;;;;;;;30.00;15.93;;;1.60;99.90;;;0.66;100.00;98453.88;5040262;28;20028;-88
2022/01/11 05:22:31;;;;;;;35.10;17.67;;;1.70;99.90;;;0.76;100.00;98484.38;5044931;28;20025;-89
2022/01/11 05:24:57;;;;;;;30.35;17.00;;;1.70;99.90;;;0.67;100.00;98471.22;5037246;28;20471;-89
2022/01/11 05:27:23;;;;;;;36.20;16.75;;;1.60;99.90;;;0.80;100.00;98485.31;5057927;28;20036;-88
2022/01/11 05:29:49;;;;;;;30.40;16.58;;;1.60;99.90;;;0.74;100.00;98470.50;5060404;28;20109;-90
2022/01/11 05:32:14;;;;;;;29.50;16.70;;;1.60;99.90;;;0.78;100.00;98493.06;5061935;28;20032;-89
2022/01/11 05:34:40;;;;;;;29.00;16.02;;;1.60;99.90;;;0.81;100.00;98497.44;5041073;28;20028;-90
2022/01/11 05:37:06;;;;;;;35.22;17.20;;;1.60;99.90;;;0.80;100.00;98496.56;5040835;28;20107;-89
2022/01/11 05:39:32;;;;;;;33.45;18.30;;;1.60;99.90;;;0.73;100.00;98486.91;5028594;28;20476;-89
2022/01/11 05:41:59;;;;;;;29.30;17.83;;;1.60;99.90;;;0.74;100.00;98489.53;5042706;28;20044;-89
2022/01/11 05:44:25;;;;;;;37.55;17.95;;;1.60;99.90;;;0.63;100.00;98465.09;5063740;28;20280;-88
2022/01/11 05:46:51;;;;;;;35.20;18.70;;;1.60;99.90;;;0.78;100.00;98487.03;5028974;28;20478;-90
2022/01/11 05:49:17;;;;;;;29.85;17.90;;;1.70;99.90;;;0.78;100.00;98493.06;5058264;28;20028;-89
2022/01/11 05:51:43;;;;;;;34.42;18.77;;;1.70;99.90;;;0.88;100.00;98505.41;5042866;28;20377;-89
2022/01/11 05:54:09;;;;;;;36.00;18.38;;;1.70;99.90;;;0.81;100.00;98500.94;5060898;28;20083;-88
2022/01/11 05:56:35;;;;;;;36.83;18.55;;;1.70;99.90;;;0.90;100.00;98502.84;5023425;28;20082;-89
2022/01/11 05:59:01;;;;;;;32.80;19.52;;;1.80;99.90;;;0.94;100.00;98508.09;5025540;28;20485;-88
2022/01/11 06:01:27;;;;;;;36.97;19.13;;;1.80;99.90;;;0.93;100.00;98513.28;5052701;28;20036;-88
2022/01/11 06:03:52;;;;;;;34.50;18.60;;;1.80;99.90;;;0.85;100.00;98507.06;5018593;28;20077;-89
2022/01/11 06:06:18;;;;;;;31.70;17.08;;;1.80;99.90;;;0.98;100.00;98529.81;5043086;28;20033;-90
2022/01/11 06:08:44;;;;;;;36.75;18.65;;;1.80;99.90;;;1.02;100.00;98542.00;5040721;28;20029;-89
2022/01/11 06:11:11;;;;;;;34.83;19.05;;;1.80;99.90;;;1.01;100.00;98535.09;5043941;28;20031;-90
2022/01/11 06:13:37;;;;;;;32.72;19.08;;;1.80;99.90;;;1.04;100.00;98547.25;5047863;28;20020;-89
2022/01/11 06:16:03;;;;;;;33.05;18.27;;;1.80;99.90;;;1.06;100.00;98553.34;5042529;28;20154;-89
2022/01/11 06:18:29;;;;;;;35.83;18.40;;;1.80;99.90;;;1.05;100.00;98541.22;5039168;28;20115;-92
2022/01/11 06:20:55;;;;;;;38.28;19.25;;;1.80;99.90;;;0.87;100.00;98516.63;5024053;28;20033;-90
2022/01/11 06:23:21;;;;;;;30.70;17.65;;;1.90;99.90;;;0.94;100.00;98528.03;5042758;28;20039;-89
2022/01/11 06:25:47;;;;;;;31.45;18.23;;;1.90;99.90;;;0.95;100.00;98543.63;5051377;28;20024;-90
2022/01/11 06:28:13;;;;;;;34.97;18.05;;;1.80;99.90;;;0.95;100.00;98535.84;5033134;28;20028;-89
2022/01/11 06:30:38;;;;;;;35.20;19.15;;;1.80;99.90;;;0.99;100.00;98543.69;5057982;28;20139;-89
2022/01/11 06:33:04;;;;;;;29.58;17.65;;;1.80;99.90;;;1.00;100.00;98545.44;5048460;28;20106;-87
2022/01/11 06:35:30;;;;;;;28.23;16.63;;;1.80;99.90;;;0.81;100.00;98526.00;5056119;28;20035;-90
2022/01/11 06:37:56;;;;;;;34.75;17.25;;;1.80;99.90;;;0.78;100.00;98537.22;5051845;28;20067;-89
2022/01/11 06:40:22;;;;;;;32.22;17.38;;;1.80;99.90;;;0.85;100.00;98546.03;5061833;28;20032;-89
2022/01/11 06:42:50;;;;;;;38.45;17.63;;;1.80;99.90;;;0.90;100.00;98553.06;5051081;28;20405;-91
2022/01/11 06:45:18;;;;;;;37.05;17.60;;;1.80;99.90;;;0.99;100.00;98556.66;5048035;28;20021;-89
2022/01/11 06:47:43;;;;;;;33.25;17.25;;;1.80;99.90;;;0.95;100.00;98535.84;5049445;28;20024;-89
2022/01/11 06:50:10;;;;;;;29.10;17.67;;;1.80;99.90;;;0.87;100.00;98540.00;5040773;28;20036;-88
2022/01/11 06:52:36;;;;;;;30.45;17.58;;;1.80;99.90;;;0.93;100.00;98555.72;5060694;28;20052;-88
2022/01/11 06:55:10;;;;;;;32.95;17.83;;;1.80;99.90;;;1.00;100.00;98561.03;5048316;28;20399;-88
2022/01/11 06:57:35;;;;;;;31.60;17.75;;;1.80;99.90;;;0.83;100.00;98540.78;5031233;28;20086;-88
2022/01/11 07:00:06;;;;;;;34.10;18.42;;;1.80;99.90;;;1.09;100.00;98569.88;5057384;28;20036;-89
2022/01/11 07:02:31;;;;;;;30.27;17.80;;;1.80;99.90;;;0.98;100.00;98570.53;5030887;28;20036;-88
2022/01/11 07:04:57;;;;;;;32.25;17.77;;;1.80;99.90;;;0.97;100.00;98581.75;5042584;28;20111;-89
2022/01/11 07:07:23;;;;;;;32.95;17.50;;;1.80;99.90;;;0.92;100.00;98566.94;5046655;28;20055;-89
2022/01/11 07:09:48;;;;;;;26.95;16.25;;;1.80;99.90;;;1.01;100.00;98570.59;5048783;28;20322;-88
2022/01/11 07:12:14;;;;;;;31.08;16.75;;;1.80;99.90;;;1.02;100.00;98575.78;5035513;28;20036;-86
2022/01/11 07:14:40;;;;;;;31.95;16.80;;;1.80;99.90;;;1.04;100.00;98570.63;5044648;28;20341;-89
2022/01/11 07:17:06;;;;;;;35.72;17.58;;;1.80;99.90;;;1.07;100.00;98584.56;5046566;28;20033;-88
2022/01/11 07:19:31;;;;;;;30.83;16.83;;;1.90;99.90;;;0.95;100.00;98566.13;5042073;28;20056;-89
2022/01/11 07:21:59;;;;;;;30.35;16.77;;;1.90;99.90;;;1.07;100.00;98588.88;5048231;22;20340;-48
2022/01/11 07:24:25;;;;;;;31.63;18.55;;;1.90;99.90;;;1.05;100.00;98590.59;5030614;28;20415;-47
2022/01/11 07:26:51;;;;;;;34.83;18.65;;;1.90;99.90;;;1.11;100.00;98588.09;5021790;28;20036;-47
2022/01/11 07:29:17;;;;;;;32.60;18.75;;;1.90;99.90;;;1.16;100.00;98594.25;5024995;28;20112;-45
2022/01/11 07:31:43;;;;;;;30.00;17.83;;;2.00;99.90;;;1.10;100.00;98591.56;5024880;28;20475;-48
2022/01/11 07:34:09;;;;;;;34.17;18.23;;;1.90;99.90;;;1.21;100.00;98600.44;5025184;28;20888;-48
2022/01/11 07:36:36;;;;;;;34.08;16.70;;;2.00;99.90;;;1.17;100.00;98598.63;5022515;28;20080;-48
2022/01/11 07:39:04;;;;;;;30.45;16.50;;;2.00;99.90;;;1.08;100.00;98593.25;5025667;28;20038;-46
2022/01/11 07:41:30;;;;;;;33.47;18.40;;;2.00;99.90;;;1.14;100.00;98619.34;5027180;28;20029;-46
2022/01/11 07:43:56;;;;;;;28.77;16.55;;;2.00;99.90;;;1.19;100.00;98617.72;5022610;28;20044;-47
2022/01/11 07:46:23;;;;;;;30.20;17.35;;;2.00;99.90;;;1.20;100.00;98615.97;5028394;28;20033;-45
2022/01/11 07:48:49;;;;;;;32.47;16.90;;;2.00;99.90;;;1.15;100.00;98615.91;5027140;28;20056;-50
2022/01/11 07:51:15;;;;;;;26.00;16.02;;;2.00;99.90;;;1.15;100.00;98618.50;5025739;28;20029;-47
2022/01/11 07:53:40;;;;;;;29.23;16.88;;;2.00;99.90;;;1.13;100.00;98617.56;5025456;28;20033;-47
2022/01/11 07:56:06;;;;;;;31.63;16.80;;;2.00;99.90;;;1.13;100.00;98618.47;5026294;28;20022;-47
2022/01/11 07:58:32;;;;;;;27.63;16.60;;;2.00;99.90;;;1.16;100.00;98625.44;5022269;28;20558;-46
2022/01/11 08:00:57;;;;;;;30.58;16.85;;;2.00;99.90;;;1.15;100.00;98623.72;5023477;28;20079;-45
2022/01/11 08:03:23;;;;;;;32.83;17.52;;;2.00;99.90;;;1.11;100.00;98625.38;5025496;28;20029;-48
2022/01/11 08:05:50;;;;;;;32.55;17.55;;;2.00;99.90;;;1.19;100.00;98622.91;5025004;28;20027;-47
2022/01/11 08:08:16;;;;;;;33.00;17.95;;;2.00;99.90;;;1.23;100.00;98624.72;5022784;28;20036;-47
2022/01/11 08:10:42;;;;;;;31.50;17.73;;;2.10;99.90;;;1.22;100.00;98617.78;5026414;28;20029;-48
2022/01/11 08:13:10;;;;;;;34.33;18.77;;;2.10;99.90;;;1.39;100.00;98631.09;5021557;28;20124;-47
2022/01/11 08:15:37;;;;;;;35.78;17.98;;;2.10;99.90;;;1.47;100.00;98636.44;5024983;28;20045;-48
2022/01/11 08:18:04;;;;;;;35.95;17.58;;;2.20;99.90;;;1.46;100.00;98639.91;5026637;28;20414;-46
2022/01/11 08:20:30;;;;;;;34.90;17.92;;;2.30;99.90;;;1.56;100.00;98633.13;5025292;28;20029;-47
2022/01/11 08:22:56;;;;;;;33.53;19.27;;;2.30;99.90;;;1.68;100.00;98642.03;5021001;28;20403;-44
2022/01/11 08:25:23;;;;;;;35.80;18.52;;;2.40;99.90;;;1.69;100.00;98641.19;5025104;28;20029;-47
2022/01/11 08:27:49;;;;;;;32.63;18.55;;;2.50;99.90;;;1.79;100.00;98651.75;5021387;28;20044;-49
2022/01/11 08:30:15;;;;;;;31.63;17.55;;;2.50;99.90;;;1.85;100.00;98652.75;5019396;28;20030;-49
2022/01/11 08:32:41;;;;;;;30.80;18.05;;;2.60;99.90;;;1.94;100.00;98649.44;5025399;28;20033;-46
2022/01/11 08:35:08;;;;;;;32.45;17.85;;;2.70;99.90;;;1.94;100.00;98652.06;5026115;28;20410;-46
2022/01/11 08:37:34;;;;;;;32.65;17.80;;;2.70;99.90;;;2.03;100.00;98654.81;5024685;28;20116;-49
2022/01/11 08:39:59;;;;;;;30.40;18.83;;;2.80;99.90;;;2.06;100.00;98648.75;5023128;28;20673;-45
2022/01/11 08:42:27;;;;;;;33.10;17.45;;;2.80;99.90;;;2.10;100.00;98653.19;5023724;28;20063;-47
2022/01/11 08:44:54;;;;;;;31.55;18.35;;;2.90;99.90;;;2.20;100.00;98652.47;5021909;28;20065;-47
2022/01/11 08:47:20;;;;;;;30.35;17.77;;;3.00;99.90;;;2.21;100.00;98650.75;5021959;28;20116;-48
2022/01/11 08:49:46;;;;;;;34.75;18.55;;;3.00;99.90;;;2.25;100.00;98653.44;5024461;28;20567;-46
2022/01/11 08:52:13;;;;;;;31.02;19.35;;;3.10;99.90;;;2.27;100.00;98662.13;5024881;28;20116;-45
2022/01/11 08:54:39;;;;;;;33.22;18.00;;;3.10;99.90;;;2.19;100.00;98639.44;5025118;28;20099;-45
2022/01/11 08:57:05;;;;;;;33.80;18.55;;;3.10;99.90;;;2.37;100.00;98654.47;5021135;28;20396;-48
2022/01/11 08:59:31;;;;;;;33.25;17.48;;;3.10;99.90;;;2.49;100.00;98662.47;5026877;28;20032;-49
2022/01/11 09:02:00;;;;;;;30.70;17.92;;;3.20;99.90;;;2.57;100.00;98667.81;5025840;28;20380;-44
2022/01/11 09:04:27;;;;;;;31.67;18.30;;;3.30;99.90;;;2.55;100.00;98666.91;5025038;28;20037;-46
2022/01/11 09:06:57;;;;;;;26.92;17.60;;;3.30;99.90;;;2.64;100.00;98672.28;5025805;28;20025;-46
2022/01/11 09:09:25;;;;;;;29.05;16.92;;;3.30;99.90;;;2.68;100.00;98674.94;5005855;28;20116;-45
2022/01/11 09:11:51;;;;;;;30.83;17.02;;;3.40;99.90;;;2.80;100.00;98675.94;5019647;28;20201;-44
2022/01/11 09:14:17;;;;;;;30.17;17.08;;;3.50;99.90;;;2.83;100.00;98686.44;5026359;28;20063;-46
2022/01/11 09:16:44;;;;;;;30.90;17.75;;;3.50;99.90;;;2.92;100.00;98688.28;5023863;28;20057;-44
2022/01/11 09:19:12;;;;;;;30.40;18.67;;;3.60;99.90;;;2.90;100.00;98690.00;5025321;28;20436;-49
2022/01/11 09:21:38;;;;;;;29.73;17.92;;;3.60;99.90;;;2.91;100.00;98689.13;5021532;28;20042;-44
2022/01/11 09:24:05;;;;;;;34.70;18.83;;;3.70;99.90;;;3.00;100.00;98689.28;5024780;28;20032;-47
2022/01/11 09:26:31;;;;;;;32.50;17.35;;;3.70;99.90;;;3.11;100.00;98689.44;5021282;28;20028;-47
2022/01/11 09:28:57;;;;;;;29.75;17.40;;;3.80;99.90;;;3.08;100.00;98692.00;5023281;28;20076;-49
2022/01/11 09:31:23;;;;;;;30.33;17.80;;;3.80;99.90;;;3.09;100.00;98689.41;5024370;28;20080;-46
2022/01/11 09:33:50;;;;;;;25.77;16.55;;;3.80;99.90;;;3.14;100.00;98686.84;5024708;28;20462;-49
2022/01/11 09:36:16;;;;;;;34.15;18.33;;;3.80;99.90;;;3.18;100.00;98691.28;5025228;28;20367;-46
2022/01/11 09:38:41;;;;;;;32.95;17.48;;;3.90;99.90;;;3.16;100.00;98696.47;5022921;28;20041;-47
2022/01/11 09:41:07;;;;;;;30.90;17.67;;;3.90;99.90;;;3.22;100.00;98695.66;5018031;28;20075;-45
2022/01/11 09:43:33;;;;;;;30.08;17.25;;;3.90;99.90;;;3.25;100.00;98691.34;5022282;28;20061;-48
2022/01/11 09:45:59;;;;;;;29.90;17.02;;;4.00;99.90;;;3.30;100.00;98690.53;5021754;28;20040;-48
2022/01/11 09:48:29;;;;;;;25.27;15.57;;;4.00;99.90;;;3.34;100.00;98694.94;5024949;28;20573;-47
2022/01/11 09:50:56;;;;;;;28.45;17.10;;;4.10;99.90;;;3.35;100.00;98683.66;5021552;28;20033;-48
2022/01/11 09:53:22;;;;;;;26.63;15.07;;;4.10;99.90;;;3.44;100.00;98699.41;5021498;28;20033;-46
2022/01/11 09:55:49;;;;;;;29.45;17.38;;;4.10;99.90;;;3.43;100.00;98692.47;5020292;28;20060;-47
2022/01/11 09:58:15;;;;;;;29.35;15.55;;;4.20;99.90;;;3.40;100.00;98692.41;5024417;28;20033;-47
2022/01/11 10:00:41;;;;;;;31.50;16.92;;;4.20;99.90;;;3.32;100.00;98684.50;5018461;28;20033;-48
2022/01/11 10:03:08;;;;;;;31.40;17.40;;;4.20;99.90;;;3.25;100.00;98690.50;5022082;28;20097;-47
2022/01/11 10:05:36;;;;;;;32.55;16.75;;;4.10;99.90;;;3.14;100.00;98695.56;5024265;28;20025;-46
2022/01/11 10:08:18;;;;;;;27.60;16.50;;;4.00;99.90;;;3.18;100.00;98697.34;5022363;28;20025;-48
2022/01/11 10:10:45;;;;;;;26.52;15.43;;;4.00;99.90;;;3.24;100.00;98692.19;5045818;22;20611;-42
2022/01/11 10:13:33;;;;;;;27.55;16.65;;;4.00;99.90;;;3.27;100.00;98700.91;5020675;28;20033;-43
2022/01/11 10:16:25;;;;;;;28.05;15.43;;;4.10;99.90;;;3.44;100.00;98700.28;5023002;28;20025;-42